EZY523 EGKK-EHRD
Flight info
| Callsign | EZY523 |
|---|---|
| Flight time | 0h 56m |
| Altitude | 35000 |
| Route | EGKK/08R N0348F230 FRAN1Z FRANE M604 GASBA M197 REDFA REDF3R EHRD/06 |
| Aircraft | A20N/M-A1B2C2D2L1O2S2/S |
Departure
| Time | 2026-05-04 16:20 |
|---|---|
| Airport | London Gatwick Airport (EGKK) |
Arrival
| Time | 2026-05-04 17:16 |
|---|---|
| Airport | Rotterdam The Hague Airport (EHRD) |
| Time | Latitude | Longitude | Altitude | Speed | Heading |
|---|---|---|---|---|---|
| 2026-05-04 15:33 | 51.15660 | -0.17699 | 204 ft | 0 kts | 167° |
| 2026-05-04 15:59 | 51.15676 | -0.17705 | 214 ft | 5 kts | 167° |
| 2026-05-04 16:00 | 51.15708 | -0.17716 | 206 ft | 5 kts | 168° |
| 2026-05-04 16:00 | 51.15732 | -0.17711 | 204 ft | 2 kts | 232° |
| 2026-05-04 16:00 | 51.15737 | -0.17702 | 216 ft | 0 kts | 250° |
| 2026-05-04 16:08 | 51.15726 | -0.17751 | 208 ft | 7 kts | 256° |
| 2026-05-04 16:09 | 51.15696 | -0.17968 | 208 ft | 13 kts | 257° |
| 2026-05-04 16:09 | 51.15676 | -0.18115 | 214 ft | 1 kts | 262° |
| 2026-05-04 16:10 | 51.15666 | -0.18206 | 210 ft | 4 kts | 257° |
| 2026-05-04 16:11 | 51.15651 | -0.18309 | 208 ft | 7 kts | 258° |
| 2026-05-04 16:11 | 51.15617 | -0.18562 | 213 ft | 29 kts | 258° |
| 2026-05-04 16:12 | 51.15341 | -0.18760 | 212 ft | 24 kts | 167° |
| 2026-05-04 16:12 | 51.15163 | -0.18711 | 213 ft | 12 kts | 187° |
| 2026-05-04 16:13 | 51.15106 | -0.18921 | 208 ft | 28 kts | 256° |
| 2026-05-04 16:13 | 51.14990 | -0.19767 | 205 ft | 43 kts | 253° |
| 2026-05-04 16:14 | 51.14848 | -0.20791 | 204 ft | 48 kts | 259° |
| 2026-05-04 16:14 | 51.14733 | -0.21400 | 207 ft | 3 kts | 204° |
| 2026-05-04 16:17 | 51.14721 | -0.21403 | 215 ft | 7 kts | 185° |
| 2026-05-04 16:18 | 51.14602 | -0.21324 | 210 ft | 0 kts | 166° |
| 2026-05-04 16:19 | 51.14523 | -0.21165 | 206 ft | 0 kts | 77° |
| 2026-05-04 16:20 | 51.14855 | -0.18803 | 213 ft | 155 kts | 77° |
| 2026-05-04 16:20 | 51.15236 | -0.15299 | 1500 ft | 152 kts | 83° |
| 2026-05-04 16:21 | 51.16088 | -0.09611 | 2667 ft | 202 kts | 76° |
| 2026-05-04 16:22 | 51.16770 | -0.04832 | 3302 ft | 239 kts | 79° |
| 2026-05-04 16:22 | 51.16769 | 0.03294 | 5052 ft | 250 kts | 91° |
| 2026-05-04 16:23 | 51.16597 | 0.12686 | 5630 ft | 301 kts | 91° |
| 2026-05-04 16:24 | 51.16558 | 0.25421 | 8314 ft | 288 kts | 90° |
| 2026-05-04 16:25 | 51.16588 | 0.31840 | 9191 ft | 292 kts | 90° |
| 2026-05-04 16:26 | 51.16599 | 0.44927 | 10618 ft | 298 kts | 91° |
| 2026-05-04 16:26 | 51.18078 | 0.54309 | 11456 ft | 305 kts | 43° |
| 2026-05-04 16:27 | 51.21918 | 0.56960 | 11960 ft | 306 kts | 10° |
| 2026-05-04 16:28 | 51.28226 | 0.58941 | 12756 ft | 310 kts | 11° |
| 2026-05-04 16:28 | 51.34560 | 0.61251 | 13566 ft | 315 kts | 12° |
| 2026-05-04 16:29 | 51.42475 | 0.64233 | 14194 ft | 328 kts | 12° |
| 2026-05-04 16:30 | 51.49345 | 0.66850 | 14386 ft | 347 kts | 12° |
| 2026-05-04 16:31 | 51.54116 | 0.68670 | 14482 ft | 358 kts | 12° |
| 2026-05-04 16:31 | 51.61508 | 0.71492 | 14617 ft | 369 kts | 12° |
| 2026-05-04 16:32 | 51.69012 | 0.74359 | 14936 ft | 371 kts | 12° |
| 2026-05-04 16:33 | 51.74042 | 0.76286 | 15100 ft | 372 kts | 12° |
| 2026-05-04 16:33 | 51.79130 | 0.77772 | 15249 ft | 373 kts | 18° |
| 2026-05-04 16:34 | 51.83397 | 0.82373 | 15358 ft | 375 kts | 53° |
| 2026-05-04 16:34 | 51.84620 | 0.86075 | 15406 ft | 375 kts | 73° |
| 2026-05-04 16:35 | 51.86696 | 0.98282 | 15598 ft | 376 kts | 75° |
| 2026-05-04 16:35 | 51.88855 | 1.10370 | 16232 ft | 362 kts | 75° |
| 2026-05-04 16:36 | 51.89551 | 1.14221 | 16664 ft | 351 kts | 75° |
| 2026-05-04 16:36 | 51.90882 | 1.21596 | 17529 ft | 330 kts | 75° |
| 2026-05-04 16:37 | 51.92113 | 1.28452 | 18406 ft | 307 kts | 76° |
| 2026-05-04 16:37 | 51.92697 | 1.31712 | 18795 ft | 295 kts | 76° |
| 2026-05-04 16:37 | 51.93822 | 1.38028 | 19029 ft | 292 kts | 76° |
| 2026-05-04 16:38 | 51.94945 | 1.44361 | 19134 ft | 293 kts | 76° |
| 2026-05-04 16:39 | 51.96628 | 1.53888 | 19296 ft | 293 kts | 76° |
| 2026-05-04 16:39 | 51.97750 | 1.60260 | 19398 ft | 294 kts | 76° |
| 2026-05-04 16:40 | 51.98871 | 1.66648 | 19501 ft | 295 kts | 76° |
| 2026-05-04 16:40 | 51.99939 | 1.73071 | 19581 ft | 295 kts | 78° |
| 2026-05-04 16:41 | 52.00925 | 1.79540 | 19674 ft | 295 kts | 78° |
| 2026-05-04 16:41 | 52.02421 | 1.89265 | 19807 ft | 296 kts | 78° |
| 2026-05-04 16:42 | 52.03925 | 1.99012 | 19928 ft | 297 kts | 78° |
| 2026-05-04 16:43 | 52.04924 | 2.05525 | 20004 ft | 298 kts | 78° |
| 2026-05-04 16:43 | 52.05924 | 2.12068 | 20073 ft | 298 kts | 78° |
| 2026-05-04 16:43 | 52.06422 | 2.15335 | 20107 ft | 298 kts | 78° |
| 2026-05-04 16:44 | 52.08410 | 2.28454 | 20244 ft | 299 kts | 78° |
| 2026-05-04 16:45 | 52.09395 | 2.34986 | 20299 ft | 300 kts | 78° |
| 2026-05-04 16:46 | 52.10879 | 2.44893 | 20394 ft | 300 kts | 78° |
| 2026-05-04 16:46 | 52.11866 | 2.51505 | 20447 ft | 301 kts | 78° |
| 2026-05-04 16:47 | 52.12849 | 2.58102 | 20083 ft | 301 kts | 78° |
| 2026-05-04 16:47 | 52.13857 | 2.64903 | 18843 ft | 318 kts | 78° |
| 2026-05-04 16:48 | 52.15457 | 2.75802 | 17111 ft | 333 kts | 78° |
| 2026-05-04 16:48 | 52.15977 | 2.79411 | 17003 ft | 322 kts | 83° |
| 2026-05-04 16:49 | 52.15416 | 2.86215 | 16394 ft | 308 kts | 109° |
| 2026-05-04 16:49 | 52.13868 | 2.92864 | 15063 ft | 322 kts | 116° |
| 2026-05-04 16:50 | 52.11858 | 2.99574 | 13662 ft | 338 kts | 122° |
| 2026-05-04 16:50 | 52.09590 | 3.06225 | 13023 ft | 328 kts | 122° |
| 2026-05-04 16:51 | 52.07477 | 3.12456 | 12994 ft | 301 kts | 122° |
| 2026-05-04 16:51 | 52.06497 | 3.15374 | 12996 ft | 287 kts | 122° |
| 2026-05-04 16:51 | 52.04692 | 3.20812 | 13014 ft | 259 kts | 122° |
| 2026-05-04 16:52 | 52.03068 | 3.25776 | 12944 ft | 259 kts | 122° |
| 2026-05-04 16:52 | 52.02159 | 3.28521 | 13010 ft | 291 kts | 122° |
| 2026-05-04 16:53 | 52.00048 | 3.34766 | 13015 ft | 345 kts | 122° |
| 2026-05-04 16:53 | 51.96116 | 3.46104 | 12998 ft | 425 kts | 122° |
| 2026-05-04 16:54 | 51.94697 | 3.50160 | 12998 ft | 404 kts | 122° |
| 2026-05-04 16:55 | 51.88501 | 3.59933 | 14438 ft | 254 kts | 188° |
| 2026-05-04 16:55 | 51.85007 | 3.59065 | 14725 ft | 253 kts | 195° |
| 2026-05-04 16:56 | 51.81372 | 3.57487 | 12772 ft | 284 kts | 200° |
| 2026-05-04 16:56 | 51.75912 | 3.58842 | 9770 ft | 310 kts | 115° |
| 2026-05-04 16:57 | 51.75845 | 3.62200 | 9489 ft | 298 kts | 76° |
| 2026-05-04 16:57 | 51.77575 | 3.67804 | 9450 ft | 267 kts | 62° |
| 2026-05-04 16:58 | 51.80008 | 3.75402 | 8966 ft | 242 kts | 65° |
| 2026-05-04 16:58 | 51.80726 | 3.77880 | 8539 ft | 244 kts | 66° |
| 2026-05-04 16:59 | 51.82070 | 3.82901 | 7927 ft | 238 kts | 69° |
| 2026-05-04 17:00 | 51.84196 | 3.92402 | 7058 ft | 213 kts | 73° |
| 2026-05-04 17:00 | 51.84533 | 3.99218 | 7127 ft | 162 kts | 102° |
| 2026-05-04 17:01 | 51.84165 | 4.03017 | 6877 ft | 182 kts | 100° |
| 2026-05-04 17:01 | 51.84760 | 4.07093 | 6537 ft | 220 kts | 68° |
| 2026-05-04 17:02 | 51.86206 | 4.12452 | 6469 ft | 276 kts | 72° |
| 2026-05-04 17:02 | 51.86806 | 4.18136 | 6224 ft | 250 kts | 92° |
| 2026-05-04 17:03 | 51.86837 | 4.20963 | 5499 ft | 249 kts | 89° |
| 2026-05-04 17:03 | 51.86970 | 4.23610 | 5232 ft | 216 kts | 84° |
| 2026-05-04 17:03 | 51.88553 | 4.26664 | 4516 ft | 210 kts | 44° |
| 2026-05-04 17:04 | 51.90153 | 4.30327 | 3852 ft | 188 kts | 57° |
| 2026-05-04 17:04 | 51.91657 | 4.33787 | 2780 ft | 196 kts | 57° |
| 2026-05-04 17:05 | 51.93189 | 4.37658 | 1393 ft | 204 kts | 59° |
| 2026-05-04 17:05 | 51.94430 | 4.41035 | 1702 ft | 150 kts | 62° |
| 2026-05-04 17:06 | 51.95448 | 4.43913 | 2422 ft | 160 kts | 61° |
| 2026-05-04 17:06 | 51.95956 | 4.45393 | 2610 ft | 162 kts | 61° |
| 2026-05-04 17:07 | 51.97818 | 4.46749 | 3125 ft | 175 kts | 327° |
| 2026-05-04 17:07 | 51.98477 | 4.46130 | 3517 ft | 155 kts | 324° |
| 2026-05-04 17:07 | 51.99684 | 4.44895 | 3399 ft | 146 kts | 313° |
| 2026-05-04 17:07 | 52.00162 | 4.43489 | 2971 ft | 164 kts | 266° |
| 2026-05-04 17:08 | 51.99664 | 4.41898 | 3526 ft | 145 kts | 228° |
| 2026-05-04 17:08 | 51.98176 | 4.39382 | 2934 ft | 167 kts | 231° |
| 2026-05-04 17:08 | 51.97380 | 4.37787 | 3358 ft | 193 kts | 231° |
| 2026-05-04 17:09 | 51.96510 | 4.36056 | 3872 ft | 207 kts | 231° |
| 2026-05-04 17:09 | 51.95494 | 4.34202 | 4360 ft | 228 kts | 219° |
| 2026-05-04 17:09 | 51.94171 | 4.33396 | 4847 ft | 188 kts | 175° |
| 2026-05-04 17:10 | 51.92036 | 4.35547 | 3815 ft | 205 kts | 112° |
| 2026-05-04 17:10 | 51.93218 | 4.35668 | 4458 ft | 104 kts | 261° |
| 2026-05-04 17:11 | 51.93150 | 4.34376 | 4170 ft | 148 kts | 261° |
| 2026-05-04 17:11 | 51.92954 | 4.32536 | 4300 ft | 182 kts | 256° |
| 2026-05-04 17:11 | 51.91885 | 4.29418 | 4670 ft | 163 kts | 224° |
| 2026-05-04 17:12 | 51.91064 | 4.28344 | 4785 ft | 138 kts | 215° |
| 2026-05-04 17:12 | 51.89408 | 4.27228 | 4126 ft | 137 kts | 188° |
| 2026-05-04 17:13 | 51.89286 | 4.30495 | 3130 ft | 192 kts | 342° |
| 2026-05-04 17:14 | 51.91152 | 4.32788 | 2853 ft | 148 kts | 123° |
| 2026-05-04 17:14 | 51.90860 | 4.34315 | 2541 ft | 161 kts | 71° |
| 2026-05-04 17:14 | 51.92452 | 4.36684 | 1935 ft | 158 kts | 43° |
| 2026-05-04 17:15 | 51.92961 | 4.37574 | 1590 ft | 162 kts | 50° |
| 2026-05-04 17:15 | 51.94281 | 4.40533 | 637 ft | 160 kts | 56° |
| 2026-05-04 17:16 | 51.95422 | 4.43342 | 8 ft | 136 kts | 53° |
| 2026-05-04 17:16 | 51.96121 | 4.45102 | 1 ft | 21 kts | 57° |
| 2026-05-04 17:17 | 51.96155 | 4.45265 | 2 ft | 17 kts | 98° |
| 2026-05-04 17:17 | 51.96129 | 4.45342 | 1 ft | 0 kts | 128° |
| 2026-05-04 17:19 | 51.96103 | 4.45389 | 1 ft | 11 kts | 140° |
| 2026-05-04 17:19 | 51.95954 | 4.45204 | 0 ft | 21 kts | 232° |
| 2026-05-04 17:20 | 51.95789 | 4.44763 | 0 ft | 38 kts | 234° |
| 2026-05-04 17:20 | 51.95487 | 4.44002 | 0 ft | 40 kts | 239° |
| 2026-05-04 17:20 | 51.95344 | 4.43648 | 0 ft | 17 kts | 242° |
| 2026-05-04 17:21 | 51.95224 | 4.43531 | 0 ft | 10 kts | 154° |
| 2026-05-04 17:21 | 51.95091 | 4.43582 | 0 ft | 11 kts | 242° |
| 2026-05-04 17:22 | 51.95087 | 4.43515 | 0 ft | 9 kts | 305° |
| 2026-05-04 17:22 | 51.95118 | 4.43480 | 0 ft | 0 kts | 325° |